sensor_id;sensor_type;location;lat;lon;timestamp;temperature;humidity
59961;DHT22;55902;-37.980;-63.602;2023-11-21T00:01:05;24.30;28.20
59961;DHT22;55902;-37.980;-63.602;2023-11-21T00:03:34;24.20;27.30
59961;DHT22;55902;-37.980;-63.602;2023-11-21T00:06:02;24.10;27.80
59961;DHT22;55902;-37.980;-63.602;2023-11-21T00:08:29;24.10;26.90
59961;DHT22;55902;-37.980;-63.602;2023-11-21T00:10:56;24.00;27.20
59961;DHT22;55902;-37.980;-63.602;2023-11-21T00:13:23;24.00;27.00
59961;DHT22;55902;-37.980;-63.602;2023-11-21T00:15:50;24.00;27.10
59961;DHT22;55902;-37.980;-63.602;2023-11-21T00:18:21;24.00;26.30
59961;DHT22;55902;-37.980;-63.602;2023-11-21T00:20:48;24.00;26.00
59961;DHT22;55902;-37.980;-63.602;2023-11-21T00:23:15;23.90;25.90
59961;DHT22;55902;-37.980;-63.602;2023-11-21T00:25:42;23.90;25.80
59961;DHT22;55902;-37.980;-63.602;2023-11-21T00:28:10;23.90;25.60
59961;DHT22;55902;-37.980;-63.602;2023-11-21T00:30:37;23.80;25.60
59961;DHT22;55902;-37.980;-63.602;2023-11-21T00:33:04;23.80;25.60
59961;DHT22;55902;-37.980;-63.602;2023-11-21T00:35:31;23.70;25.60
59961;DHT22;55902;-37.980;-63.602;2023-11-21T00:37:58;23.70;25.50
59961;DHT22;55902;-37.980;-63.602;2023-11-21T00:40:25;23.70;26.10
59961;DHT22;55902;-37.980;-63.602;2023-11-21T00:42:52;23.60;26.60
59961;DHT22;55902;-37.980;-63.602;2023-11-21T00:45:19;23.60;27.60
59961;DHT22;55902;-37.980;-63.602;2023-11-21T00:47:46;23.60;28.50
59961;DHT22;55902;-37.980;-63.602;2023-11-21T00:50:13;23.50;30.00
59961;DHT22;55902;-37.980;-63.602;2023-11-21T00:52:40;23.50;28.90
59961;DHT22;55902;-37.980;-63.602;2023-11-21T00:55:08;23.50;28.40
59961;DHT22;55902;-37.980;-63.602;2023-11-21T00:57:35;23.50;28.30
59961;DHT22;55902;-37.980;-63.602;2023-11-21T01:00:04;23.40;28.50
59961;DHT22;55902;-37.980;-63.602;2023-11-21T01:02:39;23.40;27.80
59961;DHT22;55902;-37.980;-63.602;2023-11-21T01:05:06;23.30;29.20
59961;DHT22;55902;-37.980;-63.602;2023-11-21T01:07:34;23.30;28.30
59961;DHT22;55902;-37.980;-63.602;2023-11-21T01:10:03;23.20;27.20
59961;DHT22;55902;-37.980;-63.602;2023-11-21T01:12:35;23.20;28.10
59961;DHT22;55902;-37.980;-63.602;2023-11-21T01:15:04;23.10;28.50
59961;DHT22;55902;-37.980;-63.602;2023-11-21T01:17:34;23.10;28.80
59961;DHT22;55902;-37.980;-63.602;2023-11-21T01:20:02;23.10;27.50
59961;DHT22;55902;-37.980;-63.602;2023-11-21T01:22:32;23.00;27.00
59961;DHT22;55902;-37.980;-63.602;2023-11-21T01:24:59;23.00;27.00
59961;DHT22;55902;-37.980;-63.602;2023-11-21T01:27:26;22.90;26.60
59961;DHT22;55902;-37.980;-63.602;2023-11-21T01:29:53;22.90;27.70
59961;DHT22;55902;-37.980;-63.602;2023-11-21T01:32:20;22.80;29.50
59961;DHT22;55902;-37.980;-63.602;2023-11-21T01:34:48;22.70;29.30
59961;DHT22;55902;-37.980;-63.602;2023-11-21T01:37:15;22.70;29.70
59961;DHT22;55902;-37.980;-63.602;2023-11-21T01:39:46;22.60;29.80
59961;DHT22;55902;-37.980;-63.602;2023-11-21T01:42:13;22.60;28.60
59961;DHT22;55902;-37.980;-63.602;2023-11-21T01:44:40;22.50;28.30
59961;DHT22;55902;-37.980;-63.602;2023-11-21T01:47:08;22.50;27.60
59961;DHT22;55902;-37.980;-63.602;2023-11-21T01:49:37;22.40;27.40
59961;DHT22;55902;-37.980;-63.602;2023-11-21T01:52:05;22.30;27.30
59961;DHT22;55902;-37.980;-63.602;2023-11-21T01:54:33;22.30;28.00
59961;DHT22;55902;-37.980;-63.602;2023-11-21T01:57:00;22.20;29.10
59961;DHT22;55902;-37.980;-63.602;2023-11-21T01:59:35;22.20;28.60
59961;DHT22;55902;-37.980;-63.602;2023-11-21T02:02:09;22.10;27.60
59961;DHT22;55902;-37.980;-63.602;2023-11-21T02:04:37;22.10;27.80
59961;DHT22;55902;-37.980;-63.602;2023-11-21T02:07:04;22.00;27.50
59961;DHT22;55902;-37.980;-63.602;2023-11-21T02:09:32;22.00;27.90
59961;DHT22;55902;-37.980;-63.602;2023-11-21T02:12:05;22.00;27.30
59961;DHT22;55902;-37.980;-63.602;2023-11-21T02:14:32;22.00;27.30
59961;DHT22;55902;-37.980;-63.602;2023-11-21T02:16:59;22.00;27.10
59961;DHT22;55902;-37.980;-63.602;2023-11-21T02:19:30;21.90;27.20
59961;DHT22;55902;-37.980;-63.602;2023-11-21T02:22:00;21.90;27.40
59961;DHT22;55902;-37.980;-63.602;2023-11-21T02:24:29;21.90;27.00
59961;DHT22;55902;-37.980;-63.602;2023-11-21T02:26:57;21.90;26.90
59961;DHT22;55902;-37.980;-63.602;2023-11-21T02:29:24;21.90;27.00
59961;DHT22;55902;-37.980;-63.602;2023-11-21T02:31:57;21.80;27.40
59961;DHT22;55902;-37.980;-63.602;2023-11-21T02:34:24;21.80;27.30
59961;DHT22;55902;-37.980;-63.602;2023-11-21T02:36:51;21.80;27.20
59961;DHT22;55902;-37.980;-63.602;2023-11-21T02:39:18;21.80;27.40
59961;DHT22;55902;-37.980;-63.602;2023-11-21T02:41:48;21.70;27.60
59961;DHT22;55902;-37.980;-63.602;2023-11-21T02:44:16;21.70;27.20
59961;DHT22;55902;-37.980;-63.602;2023-11-21T02:46:43;21.70;27.50
59961;DHT22;55902;-37.980;-63.602;2023-11-21T02:49:10;21.60;27.90
59961;DHT22;55902;-37.980;-63.602;2023-11-21T02:51:38;21.60;27.70
59961;DHT22;55902;-37.980;-63.602;2023-11-21T02:54:06;21.50;27.80
59961;DHT22;55902;-37.980;-63.602;2023-11-21T02:56:34;21.50;27.50
59961;DHT22;55902;-37.980;-63.602;2023-11-21T02:59:01;21.50;27.40
59961;DHT22;55902;-37.980;-63.602;2023-11-21T03:01:28;21.40;28.20
59961;DHT22;55902;-37.980;-63.602;2023-11-21T03:03:57;21.40;28.60
59961;DHT22;55902;-37.980;-63.602;2023-11-21T03:06:24;21.30;28.40
59961;DHT22;55902;-37.980;-63.602;2023-11-21T03:08:51;21.30;28.70
59961;DHT22;55902;-37.980;-63.602;2023-11-21T03:11:18;21.20;28.90
59961;DHT22;55902;-37.980;-63.602;2023-11-21T03:13:45;21.10;28.60
59961;DHT22;55902;-37.980;-63.602;2023-11-21T03:16:13;21.10;28.30
59961;DHT22;55902;-37.980;-63.602;2023-11-21T03:18:40;21.00;27.90
59961;DHT22;55902;-37.980;-63.602;2023-11-21T03:21:08;20.90;28.30
59961;DHT22;55902;-37.980;-63.602;2023-11-21T03:23:35;20.80;27.90
59961;DHT22;55902;-37.980;-63.602;2023-11-21T03:26:03;20.80;28.70
59961;DHT22;55902;-37.980;-63.602;2023-11-21T03:28:30;20.70;28.90
59961;DHT22;55902;-37.980;-63.602;2023-11-21T03:30:57;20.60;29.10
59961;DHT22;55902;-37.980;-63.602;2023-11-21T03:33:27;20.60;28.40
59961;DHT22;55902;-37.980;-63.602;2023-11-21T03:36:07;20.50;29.30
59961;DHT22;55902;-37.980;-63.602;2023-11-21T03:38:34;20.50;29.20
59961;DHT22;55902;-37.980;-63.602;2023-11-21T03:41:01;20.40;29.10
59961;DHT22;55902;-37.980;-63.602;2023-11-21T03:43:28;20.30;28.70
59961;DHT22;55902;-37.980;-63.602;2023-11-21T03:45:55;20.30;30.80
59961;DHT22;55902;-37.980;-63.602;2023-11-21T03:48:22;20.20;29.40
59961;DHT22;55902;-37.980;-63.602;2023-11-21T03:53:45;20.20;30.00
59961;DHT22;55902;-37.980;-63.602;2023-11-21T03:56:13;20.20;32.70
59961;DHT22;55902;-37.980;-63.602;2023-11-21T03:58:45;20.20;31.50
59961;DHT22;55902;-37.980;-63.602;2023-11-21T04:04:20;20.10;31.00
59961;DHT22;55902;-37.980;-63.602;2023-11-21T04:06:47;20.10;30.70
59961;DHT22;55902;-37.980;-63.602;2023-11-21T04:09:34;20.10;31.20
59961;DHT22;55902;-37.980;-63.602;2023-11-21T04:12:02;20.10;30.70
59961;DHT22;55902;-37.980;-63.602;2023-11-21T04:14:29;20.10;29.70
59961;DHT22;55902;-37.980;-63.602;2023-11-21T04:16:56;20.10;29.50
59961;DHT22;55902;-37.980;-63.602;2023-11-21T04:19:44;20.00;29.10
59961;DHT22;55902;-37.980;-63.602;2023-11-21T04:22:14;20.10;29.60
59961;DHT22;55902;-37.980;-63.602;2023-11-21T04:24:41;20.00;30.10
59961;DHT22;55902;-37.980;-63.602;2023-11-21T04:27:11;20.00;29.80
59961;DHT22;55902;-37.980;-63.602;2023-11-21T04:29:39;19.90;30.70
59961;DHT22;55902;-37.980;-63.602;2023-11-21T04:35:22;19.80;29.80
59961;DHT22;55902;-37.980;-63.602;2023-11-21T04:37:50;19.80;30.60
59961;DHT22;55902;-37.980;-63.602;2023-11-21T04:40:17;19.70;30.80
59961;DHT22;55902;-37.980;-63.602;2023-11-21T04:42:48;19.70;30.30
59961;DHT22;55902;-37.980;-63.602;2023-11-21T04:45:15;19.70;30.50
59961;DHT22;55902;-37.980;-63.602;2023-11-21T04:47:43;19.70;32.00
59961;DHT22;55902;-37.980;-63.602;2023-11-21T04:51:00;19.60;29.90
59961;DHT22;55902;-37.980;-63.602;2023-11-21T04:53:26;19.60;31.20
59961;DHT22;55902;-37.980;-63.602;2023-11-21T04:55:58;19.50;31.90
59961;DHT22;55902;-37.980;-63.602;2023-11-21T04:59:01;19.50;30.70
59961;DHT22;55902;-37.980;-63.602;2023-11-21T05:01:31;19.40;31.10
59961;DHT22;55902;-37.980;-63.602;2023-11-21T05:03:58;19.40;31.00
59961;DHT22;55902;-37.980;-63.602;2023-11-21T05:06:25;19.30;31.70
59961;DHT22;55902;-37.980;-63.602;2023-11-21T05:09:03;19.20;30.40
59961;DHT22;55902;-37.980;-63.602;2023-11-21T05:11:38;19.20;30.00
59961;DHT22;55902;-37.980;-63.602;2023-11-21T05:14:07;19.10;30.30
59961;DHT22;55902;-37.980;-63.602;2023-11-21T05:16:35;19.00;31.20
59961;DHT22;55902;-37.980;-63.602;2023-11-21T05:19:02;19.00;30.70
59961;DHT22;55902;-37.980;-63.602;2023-11-21T05:21:30;19.00;30.80
59961;DHT22;55902;-37.980;-63.602;2023-11-21T05:24:04;18.90;31.70
59961;DHT22;55902;-37.980;-63.602;2023-11-21T05:26:31;18.90;31.20
59961;DHT22;55902;-37.980;-63.602;2023-11-21T05:29:04;18.90;30.60
59961;DHT22;55902;-37.980;-63.602;2023-11-21T05:31:31;18.80;31.50
59961;DHT22;55902;-37.980;-63.602;2023-11-21T05:33:58;18.80;31.20
59961;DHT22;55902;-37.980;-63.602;2023-11-21T05:36:25;18.80;31.00
59961;DHT22;55902;-37.980;-63.602;2023-11-21T05:38:52;18.80;30.00
59961;DHT22;55902;-37.980;-63.602;2023-11-21T05:41:19;18.80;31.00
59961;DHT22;55902;-37.980;-63.602;2023-11-21T05:43:46;18.80;31.20
59961;DHT22;55902;-37.980;-63.602;2023-11-21T05:46:13;18.80;31.00
59961;DHT22;55902;-37.980;-63.602;2023-11-21T05:48:52;18.80;30.00
59961;DHT22;55902;-37.980;-63.602;2023-11-21T05:51:36;18.80;31.70
59961;DHT22;55902;-37.980;-63.602;2023-11-21T05:57:01;18.70;30.00
59961;DHT22;55902;-37.980;-63.602;2023-11-21T05:59:31;18.70;30.00
59961;DHT22;55902;-37.980;-63.602;2023-11-21T06:01:58;18.70;30.70
59961;DHT22;55902;-37.980;-63.602;2023-11-21T06:04:25;18.60;29.80
59961;DHT22;55902;-37.980;-63.602;2023-11-21T06:06:52;18.60;30.50
59961;DHT22;55902;-37.980;-63.602;2023-11-21T06:09:20;18.60;30.70
59961;DHT22;55902;-37.980;-63.602;2023-11-21T06:11:47;18.60;30.50
59961;DHT22;55902;-37.980;-63.602;2023-11-21T06:14:17;18.60;30.40
59961;DHT22;55902;-37.980;-63.602;2023-11-21T06:16:48;18.60;31.60
59961;DHT22;55902;-37.980;-63.602;2023-11-21T06:19:22;18.60;31.50
59961;DHT22;55902;-37.980;-63.602;2023-11-21T06:21:49;18.60;31.20
59961;DHT22;55902;-37.980;-63.602;2023-11-21T06:24:16;18.50;32.40
59961;DHT22;55902;-37.980;-63.602;2023-11-21T06:26:43;18.50;31.20
59961;DHT22;55902;-37.980;-63.602;2023-11-21T06:29:10;18.40;31.70
59961;DHT22;55902;-37.980;-63.602;2023-11-21T06:31:49;18.40;30.90
59961;DHT22;55902;-37.980;-63.602;2023-11-21T06:34:25;18.40;30.30
59961;DHT22;55902;-37.980;-63.602;2023-11-21T06:36:57;18.30;31.30
59961;DHT22;55902;-37.980;-63.602;2023-11-21T06:39:24;18.30;31.50
59961;DHT22;55902;-37.980;-63.602;2023-11-21T06:41:53;18.20;30.80
59961;DHT22;55902;-37.980;-63.602;2023-11-21T06:44:20;18.20;30.60
59961;DHT22;55902;-37.980;-63.602;2023-11-21T06:47:06;18.20;31.50
59961;DHT22;55902;-37.980;-63.602;2023-11-21T06:49:44;18.10;31.90
59961;DHT22;55902;-37.980;-63.602;2023-11-21T06:52:23;18.10;31.80
59961;DHT22;55902;-37.980;-63.602;2023-11-21T06:54:50;18.00;31.90
59961;DHT22;55902;-37.980;-63.602;2023-11-21T06:57:17;17.90;32.00
59961;DHT22;55902;-37.980;-63.602;2023-11-21T06:59:44;17.90;31.20
59961;DHT22;55902;-37.980;-63.602;2023-11-21T07:02:37;17.90;31.10
59961;DHT22;55902;-37.980;-63.602;2023-11-21T07:05:25;17.80;32.50
59961;DHT22;55902;-37.980;-63.602;2023-11-21T07:08:21;17.70;31.50
59961;DHT22;55902;-37.980;-63.602;2023-11-21T07:10:49;17.70;32.00
59961;DHT22;55902;-37.980;-63.602;2023-11-21T07:13:16;17.70;33.70
59961;DHT22;55902;-37.980;-63.602;2023-11-21T07:15:52;17.60;33.70
59961;DHT22;55902;-37.980;-63.602;2023-11-21T07:18:19;17.50;32.30
59961;DHT22;55902;-37.980;-63.602;2023-11-21T07:20:45;17.50;31.60
59961;DHT22;55902;-37.980;-63.602;2023-11-21T07:23:18;17.40;31.60
59961;DHT22;55902;-37.980;-63.602;2023-11-21T07:26:05;17.40;32.30
59961;DHT22;55902;-37.980;-63.602;2023-11-21T07:28:35;17.30;34.60
59961;DHT22;55902;-37.980;-63.602;2023-11-21T07:31:02;17.30;34.20
59961;DHT22;55902;-37.980;-63.602;2023-11-21T07:33:29;17.20;34.50
59961;DHT22;55902;-37.980;-63.602;2023-11-21T07:35:56;17.10;34.30
59961;DHT22;55902;-37.980;-63.602;2023-11-21T07:41:45;16.90;35.60
59961;DHT22;55902;-37.980;-63.602;2023-11-21T07:44:15;16.80;35.00
59961;DHT22;55902;-37.980;-63.602;2023-11-21T07:46:43;16.80;35.20
59961;DHT22;55902;-37.980;-63.602;2023-11-21T07:49:11;16.70;35.80
59961;DHT22;55902;-37.980;-63.602;2023-11-21T07:51:38;16.60;35.30
59961;DHT22;55902;-37.980;-63.602;2023-11-21T07:58:12;16.50;35.70
59961;DHT22;55902;-37.980;-63.602;2023-11-21T08:00:39;16.40;35.50
59961;DHT22;55902;-37.980;-63.602;2023-11-21T08:03:06;16.30;36.40
59961;DHT22;55902;-37.980;-63.602;2023-11-21T08:05:33;16.30;37.10
59961;DHT22;55902;-37.980;-63.602;2023-11-21T08:08:03;16.20;36.60
59961;DHT22;55902;-37.980;-63.602;2023-11-21T08:10:30;16.10;35.60
59961;DHT22;55902;-37.980;-63.602;2023-11-21T08:12:57;16.10;35.00
59961;DHT22;55902;-37.980;-63.602;2023-11-21T08:15:24;16.10;36.70
59961;DHT22;55902;-37.980;-63.602;2023-11-21T08:17:51;16.00;36.40
59961;DHT22;55902;-37.980;-63.602;2023-11-21T08:20:18;15.90;36.90
59961;DHT22;55902;-37.980;-63.602;2023-11-21T08:22:45;15.90;36.90
59961;DHT22;55902;-37.980;-63.602;2023-11-21T08:25:14;15.80;37.20
59961;DHT22;55902;-37.980;-63.602;2023-11-21T08:27:41;15.70;37.70
59961;DHT22;55902;-37.980;-63.602;2023-11-21T08:30:08;15.70;38.30
59961;DHT22;55902;-37.980;-63.602;2023-11-21T08:32:35;15.60;37.10
59961;DHT22;55902;-37.980;-63.602;2023-11-21T08:35:02;15.60;37.50
59961;DHT22;55902;-37.980;-63.602;2023-11-21T08:37:29;15.50;38.20
59961;DHT22;55902;-37.980;-63.602;2023-11-21T08:39:58;15.50;37.90
59961;DHT22;55902;-37.980;-63.602;2023-11-21T08:42:28;15.40;36.80
59961;DHT22;55902;-37.980;-63.602;2023-11-21T08:44:56;15.40;38.10
59961;DHT22;55902;-37.980;-63.602;2023-11-21T08:47:26;15.30;38.40
59961;DHT22;55902;-37.980;-63.602;2023-11-21T08:59:59;15.20;38.00
59961;DHT22;55902;-37.980;-63.602;2023-11-21T09:02:26;15.10;38.50
59961;DHT22;55902;-37.980;-63.602;2023-11-21T09:04:53;15.10;37.30
59961;DHT22;55902;-37.980;-63.602;2023-11-21T09:07:20;15.10;38.80
59961;DHT22;55902;-37.980;-63.602;2023-11-21T09:09:48;15.10;38.30
59961;DHT22;55902;-37.980;-63.602;2023-11-21T09:12:16;15.00;39.90
59961;DHT22;55902;-37.980;-63.602;2023-11-21T09:14:43;15.00;40.00
59961;DHT22;55902;-37.980;-63.602;2023-11-21T09:17:10;15.00;39.00
59961;DHT22;55902;-37.980;-63.602;2023-11-21T09:19:38;15.00;39.70
59961;DHT22;55902;-37.980;-63.602;2023-11-21T09:22:05;15.10;39.10
59961;DHT22;55902;-37.980;-63.602;2023-11-21T09:24:33;15.10;39.20
59961;DHT22;55902;-37.980;-63.602;2023-11-21T09:27:00;15.10;40.60
59961;DHT22;55902;-37.980;-63.602;2023-11-21T09:29:27;15.10;39.40
59961;DHT22;55902;-37.980;-63.602;2023-11-21T09:31:55;15.10;39.60
59961;DHT22;55902;-37.980;-63.602;2023-11-21T09:34:29;15.10;40.70
59961;DHT22;55902;-37.980;-63.602;2023-11-21T09:36:59;15.10;39.40
59961;DHT22;55902;-37.980;-63.602;2023-11-21T09:39:29;15.20;40.00
59961;DHT22;55902;-37.980;-63.602;2023-11-21T09:44:36;15.30;40.00
59961;DHT22;55902;-37.980;-63.602;2023-11-21T09:47:09;15.30;39.30
59961;DHT22;55902;-37.980;-63.602;2023-11-21T09:49:39;15.40;39.70
59961;DHT22;55902;-37.980;-63.602;2023-11-21T09:52:09;15.50;39.50
59961;DHT22;55902;-37.980;-63.602;2023-11-21T09:54:42;15.60;38.80
59961;DHT22;55902;-37.980;-63.602;2023-11-21T09:57:09;15.60;39.90
59961;DHT22;55902;-37.980;-63.602;2023-11-21T09:59:41;15.70;39.60
59961;DHT22;55902;-37.980;-63.602;2023-11-21T10:02:09;15.80;39.10
59961;DHT22;55902;-37.980;-63.602;2023-11-21T10:04:41;15.90;39.70
59961;DHT22;55902;-37.980;-63.602;2023-11-21T10:07:09;16.00;40.30
59961;DHT22;55902;-37.980;-63.602;2023-11-21T10:09:37;16.10;39.60
59961;DHT22;55902;-37.980;-63.602;2023-11-21T10:12:06;16.20;39.70
59961;DHT22;55902;-37.980;-63.602;2023-11-21T10:14:37;16.30;39.70
59961;DHT22;55902;-37.980;-63.602;2023-11-21T10:17:11;16.40;40.00
59961;DHT22;55902;-37.980;-63.602;2023-11-21T10:19:43;16.50;40.00
59961;DHT22;55902;-37.980;-63.602;2023-11-21T10:22:10;16.70;39.00
59961;DHT22;55902;-37.980;-63.602;2023-11-21T10:24:37;16.80;37.60
59961;DHT22;55902;-37.980;-63.602;2023-11-21T10:27:07;17.00;38.30
59961;DHT22;55902;-37.980;-63.602;2023-11-21T10:29:35;17.20;38.90
59961;DHT22;55902;-37.980;-63.602;2023-11-21T10:32:05;17.20;38.90
59961;DHT22;55902;-37.980;-63.602;2023-11-21T10:34:33;17.40;38.20
59961;DHT22;55902;-37.980;-63.602;2023-11-21T10:37:12;17.50;38.40
59961;DHT22;55902;-37.980;-63.602;2023-11-21T10:39:40;17.60;37.80
59961;DHT22;55902;-37.980;-63.602;2023-11-21T10:42:09;17.70;38.20
59961;DHT22;55902;-37.980;-63.602;2023-11-21T10:44:41;17.80;37.30
59961;DHT22;55902;-37.980;-63.602;2023-11-21T10:47:11;17.90;36.90
59961;DHT22;55902;-37.980;-63.602;2023-11-21T10:49:40;18.00;37.10
59961;DHT22;55902;-37.980;-63.602;2023-11-21T10:52:07;18.10;37.20
59961;DHT22;55902;-37.980;-63.602;2023-11-21T10:54:34;18.10;37.70
59961;DHT22;55902;-37.980;-63.602;2023-11-21T10:57:05;18.20;36.80
59961;DHT22;55902;-37.980;-63.602;2023-11-21T10:59:33;18.50;37.30
59961;DHT22;55902;-37.980;-63.602;2023-11-21T11:02:32;18.80;36.60
59961;DHT22;55902;-37.980;-63.602;2023-11-21T11:05:04;19.00;36.50
59961;DHT22;55902;-37.980;-63.602;2023-11-21T11:07:40;19.20;35.70
59961;DHT22;55902;-37.980;-63.602;2023-11-21T11:10:09;19.30;35.60
59961;DHT22;55902;-37.980;-63.602;2023-11-21T11:12:46;19.40;35.30
59961;DHT22;55902;-37.980;-63.602;2023-11-21T11:15:15;19.50;35.70
59961;DHT22;55902;-37.980;-63.602;2023-11-21T11:17:42;19.60;35.50
59961;DHT22;55902;-37.980;-63.602;2023-11-21T11:20:13;19.70;35.40
59961;DHT22;55902;-37.980;-63.602;2023-11-21T11:28:38;20.00;34.90
59961;DHT22;55902;-37.980;-63.602;2023-11-21T11:31:48;20.10;34.70
59961;DHT22;55902;-37.980;-63.602;2023-11-21T11:34:31;20.10;35.10
59961;DHT22;55902;-37.980;-63.602;2023-11-21T11:37:06;20.10;35.10
59961;DHT22;55902;-37.980;-63.602;2023-11-21T11:39:41;20.20;34.90
59961;DHT22;55902;-37.980;-63.602;2023-11-21T11:42:16;20.40;35.00
59961;DHT22;55902;-37.980;-63.602;2023-11-21T11:47:16;21.40;34.00
59961;DHT22;55902;-37.980;-63.602;2023-11-21T11:50:07;22.10;33.40
59961;DHT22;55902;-37.980;-63.602;2023-11-21T11:52:48;22.90;33.10
59961;DHT22;55902;-37.980;-63.602;2023-11-21T11:55:18;23.60;32.00
59961;DHT22;55902;-37.980;-63.602;2023-11-21T11:57:49;23.90;31.50
59961;DHT22;55902;-37.980;-63.602;2023-11-21T12:03:02;24.70;31.00
59961;DHT22;55902;-37.980;-63.602;2023-11-21T12:05:37;25.20;30.90
59961;DHT22;55902;-37.980;-63.602;2023-11-21T12:08:16;25.70;30.60
59961;DHT22;55902;-37.980;-63.602;2023-11-21T12:10:50;26.10;29.90
59961;DHT22;55902;-37.980;-63.602;2023-11-21T12:13:20;26.30;29.30
59961;DHT22;55902;-37.980;-63.602;2023-11-21T12:15:49;26.50;29.50
59961;DHT22;55902;-37.980;-63.602;2023-11-21T12:18:17;26.80;29.70
59961;DHT22;55902;-37.980;-63.602;2023-11-21T12:20:44;27.00;29.00
59961;DHT22;55902;-37.980;-63.602;2023-11-21T12:23:15;27.20;29.00
59961;DHT22;55902;-37.980;-63.602;2023-11-21T12:25:43;27.40;29.50
59961;DHT22;55902;-37.980;-63.602;2023-11-21T12:28:11;27.90;28.90
59961;DHT22;55902;-37.980;-63.602;2023-11-21T12:30:38;28.00;28.00
59961;DHT22;55902;-37.980;-63.602;2023-11-21T12:33:06;28.10;27.80
59961;DHT22;55902;-37.980;-63.602;2023-11-21T12:35:41;28.20;28.20
59961;DHT22;55902;-37.980;-63.602;2023-11-21T12:38:10;28.40;28.50
59961;DHT22;55902;-37.980;-63.602;2023-11-21T12:40:38;28.60;27.80
59961;DHT22;55902;-37.980;-63.602;2023-11-21T12:43:07;28.70;27.40
59961;DHT22;55902;-37.980;-63.602;2023-11-21T12:45:36;28.80;27.30
59961;DHT22;55902;-37.980;-63.602;2023-11-21T12:48:05;28.50;27.30
59961;DHT22;55902;-37.980;-63.602;2023-11-21T12:50:39;28.20;26.80
59961;DHT22;55902;-37.980;-63.602;2023-11-21T12:53:14;27.90;27.00
59961;DHT22;55902;-37.980;-63.602;2023-11-21T12:55:44;27.80;27.20
59961;DHT22;55902;-37.980;-63.602;2023-11-21T12:58:17;27.80;27.60
59961;DHT22;55902;-37.980;-63.602;2023-11-21T13:00:48;28.10;27.40
59961;DHT22;55902;-37.980;-63.602;2023-11-21T13:03:29;28.20;27.00
59961;DHT22;55902;-37.980;-63.602;2023-11-21T13:05:57;28.40;27.10
59961;DHT22;55902;-37.980;-63.602;2023-11-21T13:08:26;28.50;26.80
59961;DHT22;55902;-37.980;-63.602;2023-11-21T13:11:01;28.60;27.10
59961;DHT22;55902;-37.980;-63.602;2023-11-21T13:13:30;28.50;26.50
59961;DHT22;55902;-37.980;-63.602;2023-11-21T13:16:05;28.40;26.50
59961;DHT22;55902;-37.980;-63.602;2023-11-21T13:18:32;28.30;26.60
59961;DHT22;55902;-37.980;-63.602;2023-11-21T13:21:04;28.00;26.50
59961;DHT22;55902;-37.980;-63.602;2023-11-21T13:23:38;28.10;26.70
59961;DHT22;55902;-37.980;-63.602;2023-11-21T13:26:07;28.20;27.00
59961;DHT22;55902;-37.980;-63.602;2023-11-21T13:28:35;28.30;26.70
59961;DHT22;55902;-37.980;-63.602;2023-11-21T13:31:04;28.50;27.00
59961;DHT22;55902;-37.980;-63.602;2023-11-21T13:33:50;28.80;27.10
59961;DHT22;55902;-37.980;-63.602;2023-11-21T13:36:25;29.10;26.80
59961;DHT22;55902;-37.980;-63.602;2023-11-21T13:38:57;29.40;26.50
59961;DHT22;55902;-37.980;-63.602;2023-11-21T13:41:26;29.50;26.20
59961;DHT22;55902;-37.980;-63.602;2023-11-21T13:43:57;29.40;25.60
59961;DHT22;55902;-37.980;-63.602;2023-11-21T13:46:42;29.40;25.50
59961;DHT22;55902;-37.980;-63.602;2023-11-21T13:49:09;29.50;25.80
59961;DHT22;55902;-37.980;-63.602;2023-11-21T13:51:37;29.60;25.80
59961;DHT22;55902;-37.980;-63.602;2023-11-21T13:54:09;29.70;25.80
59961;DHT22;55902;-37.980;-63.602;2023-11-21T13:56:42;29.90;26.60
59961;DHT22;55902;-37.980;-63.602;2023-11-21T13:59:16;30.10;26.00
59961;DHT22;55902;-37.980;-63.602;2023-11-21T14:01:54;30.20;25.60
59961;DHT22;55902;-37.980;-63.602;2023-11-21T14:04:23;30.40;26.00
59961;DHT22;55902;-37.980;-63.602;2023-11-21T14:07:08;30.50;26.00
59961;DHT22;55902;-37.980;-63.602;2023-11-21T14:10:14;30.60;25.50
59961;DHT22;55902;-37.980;-63.602;2023-11-21T14:12:48;30.40;25.30
59961;DHT22;55902;-37.980;-63.602;2023-11-21T14:15:18;30.40;25.70
59961;DHT22;55902;-37.980;-63.602;2023-11-21T14:17:53;30.40;25.60
59961;DHT22;55902;-37.980;-63.602;2023-11-21T14:20:21;30.50;25.60
59961;DHT22;55902;-37.980;-63.602;2023-11-21T14:22:48;30.40;25.20
59961;DHT22;55902;-37.980;-63.602;2023-11-21T14:25:19;30.40;25.80
59961;DHT22;55902;-37.980;-63.602;2023-11-21T14:27:50;30.40;25.60
59961;DHT22;55902;-37.980;-63.602;2023-11-21T14:30:20;30.40;25.80
59961;DHT22;55902;-37.980;-63.602;2023-11-21T14:32:49;30.70;26.20
59961;DHT22;55902;-37.980;-63.602;2023-11-21T14:35:16;30.90;26.10
59961;DHT22;55902;-37.980;-63.602;2023-11-21T14:37:46;31.20;26.20
59961;DHT22;55902;-37.980;-63.602;2023-11-21T14:40:16;31.40;26.00
59961;DHT22;55902;-37.980;-63.602;2023-11-21T14:42:53;31.60;25.40
59961;DHT22;55902;-37.980;-63.602;2023-11-21T14:45:24;31.70;25.40
59961;DHT22;55902;-37.980;-63.602;2023-11-21T14:47:56;31.80;25.40
59961;DHT22;55902;-37.980;-63.602;2023-11-21T14:50:36;31.80;25.10
59961;DHT22;55902;-37.980;-63.602;2023-11-21T14:53:12;31.80;25.30
59961;DHT22;55902;-37.980;-63.602;2023-11-21T14:55:52;31.80;25.50
59961;DHT22;55902;-37.980;-63.602;2023-11-21T14:58:24;31.80;25.40
59961;DHT22;55902;-37.980;-63.602;2023-11-21T15:00:57;31.90;25.80
59961;DHT22;55902;-37.980;-63.602;2023-11-21T15:03:32;31.80;25.10
59961;DHT22;55902;-37.980;-63.602;2023-11-21T15:06:04;32.00;25.10
59961;DHT22;55902;-37.980;-63.602;2023-11-21T15:09:10;32.00;25.10
59961;DHT22;55902;-37.980;-63.602;2023-11-21T15:11:46;31.90;24.90
59961;DHT22;55902;-37.980;-63.602;2023-11-21T15:14:28;32.00;25.30
59961;DHT22;55902;-37.980;-63.602;2023-11-21T15:16:58;32.20;25.70
59961;DHT22;55902;-37.980;-63.602;2023-11-21T15:19:36;32.10;25.00
59961;DHT22;55902;-37.980;-63.602;2023-11-21T15:24:54;32.10;24.20
59961;DHT22;55902;-37.980;-63.602;2023-11-21T15:27:25;32.00;24.30
59961;DHT22;55902;-37.980;-63.602;2023-11-21T15:34:07;31.90;24.60
59961;DHT22;55902;-37.980;-63.602;2023-11-21T15:36:38;31.50;25.00
59961;DHT22;55902;-37.980;-63.602;2023-11-21T15:39:05;31.60;25.00
59961;DHT22;55902;-37.980;-63.602;2023-11-21T15:41:34;32.00;25.00
59961;DHT22;55902;-37.980;-63.602;2023-11-21T15:44:06;32.20;24.80
59961;DHT22;55902;-37.980;-63.602;2023-11-21T15:46:40;32.50;24.90
59961;DHT22;55902;-37.980;-63.602;2023-11-21T15:49:09;32.70;24.70
59961;DHT22;55902;-37.980;-63.602;2023-11-21T15:51:43;32.90;24.60
59961;DHT22;55902;-37.980;-63.602;2023-11-21T15:54:21;33.10;24.60
59961;DHT22;55902;-37.980;-63.602;2023-11-21T15:56:53;33.20;24.40
59961;DHT22;55902;-37.980;-63.602;2023-11-21T15:59:27;33.50;24.60